createdAt,value
2022-11-01T00:00:54.413Z,5.20
2022-11-01T00:03:45.010Z,5.30
2022-11-01T00:06:34.744Z,5.50
2022-11-01T00:09:24.085Z,5.60
2022-11-01T00:12:13.460Z,5.60
2022-11-01T00:15:02.663Z,5.70
2022-11-01T00:17:51.949Z,5.80
2022-11-01T00:20:42.721Z,6.00
2022-11-01T00:23:31.939Z,6.10
2022-11-01T00:26:24.043Z,6.30
2022-11-01T00:29:14.343Z,6.40
2022-11-01T00:32:03.559Z,6.50
2022-11-01T00:34:53.149Z,6.50
2022-11-01T00:37:43.769Z,6.60
2022-11-01T00:40:33.078Z,6.70
2022-11-01T00:43:22.320Z,6.70
2022-11-01T00:46:12.369Z,6.70
2022-11-01T00:49:01.939Z,6.80
2022-11-01T00:51:52.780Z,6.80
2022-11-01T00:54:43.679Z,6.90
2022-11-01T00:57:32.938Z,6.90
2022-11-01T01:00:22.321Z,6.90
2022-11-01T01:03:11.665Z,7.00
2022-11-01T01:06:01.381Z,7.00
2022-11-01T01:08:50.618Z,7.00
2022-11-01T01:11:41.460Z,7.10
2022-11-01T01:14:32.455Z,7.10
2022-11-01T01:17:22.330Z,7.20
2022-11-01T01:20:12.599Z,7.20
2022-11-01T01:23:01.838Z,7.30
2022-11-01T01:25:51.409Z,7.30
2022-11-01T01:28:44.711Z,7.30
2022-11-01T01:31:34.146Z,7.40
2022-11-01T01:34:23.537Z,7.40
2022-11-01T01:37:15.994Z,7.40
2022-11-01T01:40:06.665Z,7.40
2022-11-01T01:42:55.864Z,7.40
2022-11-01T01:45:46.664Z,7.50
2022-11-01T01:48:36.161Z,7.60
2022-11-01T01:51:27.820Z,7.60
2022-11-01T01:54:17.120Z,7.60
2022-11-01T01:57:07.744Z,7.70
2022-11-01T01:59:56.981Z,7.70
2022-11-01T02:02:48.348Z,7.80
2022-11-01T02:05:45.639Z,7.80
2022-11-01T02:08:35.741Z,7.80
2022-11-01T02:11:25.541Z,7.70
2022-11-01T02:14:41.081Z,7.80
2022-11-01T02:17:35.438Z,7.90
2022-11-01T02:21:15.934Z,7.90
2022-11-01T02:25:00.167Z,7.90
2022-11-01T02:28:09.941Z,7.90
2022-11-01T02:31:09.461Z,7.90
2022-11-01T02:38:09.169Z,8.00
2022-11-01T02:41:13.601Z,8.00
2022-11-01T02:44:05.644Z,8.00
2022-11-01T02:58:23.495Z,8.00
2022-11-01T03:01:16.931Z,8.10
2022-11-01T03:04:06.540Z,8.00
2022-11-01T03:11:12.645Z,8.10
2022-11-01T03:18:10.045Z,8.00
2022-11-01T03:24:36.398Z,8.00
2022-11-01T03:27:34.383Z,8.10
2022-11-01T03:30:24.346Z,8.00
2022-11-01T03:33:16.257Z,8.10
2022-11-01T03:36:13.486Z,8.10
2022-11-01T03:39:08.278Z,8.20
2022-11-01T03:42:02.719Z,8.10
2022-11-01T03:45:00.165Z,8.10
2022-11-01T03:47:49.795Z,8.10
2022-11-01T03:50:40.455Z,8.10
2022-11-01T03:57:31.488Z,8.10
2022-11-01T04:00:25.575Z,8.10
2022-11-01T04:03:15.497Z,8.00
2022-11-01T04:06:05.681Z,8.00
2022-11-01T04:17:17.066Z,8.10
2022-11-01T04:20:24.505Z,8.10
2022-11-01T04:27:15.473Z,8.00
2022-11-01T04:30:05.286Z,8.00
2022-11-01T04:32:56.493Z,8.00
2022-11-01T04:35:46.854Z,8.10
2022-11-01T04:38:36.275Z,8.00
2022-11-01T04:45:27.076Z,8.10
2022-11-01T04:48:17.953Z,8.10
2022-11-01T04:51:07.452Z,8.10
2022-11-01T04:57:58.672Z,8.10
2022-11-01T05:00:48.266Z,8.20
2022-11-01T05:03:39.610Z,8.10
2022-11-01T05:06:30.050Z,8.00
2022-11-01T05:13:21.150Z,8.10
2022-11-01T05:16:19.272Z,8.10
2022-11-01T05:19:10.697Z,8.20
2022-11-01T05:22:00.777Z,8.20
2022-11-01T05:28:51.699Z,8.30
2022-11-01T05:43:47.118Z,8.30
2022-11-01T05:46:36.588Z,8.30
2022-11-01T05:49:26.016Z,8.40
2022-11-01T06:03:38.097Z,8.30
2022-11-01T06:06:27.506Z,8.30
2022-11-01T06:09:17.178Z,8.30
2022-11-01T06:16:10.657Z,8.40
2022-11-01T06:19:00.145Z,8.50
2022-11-01T06:29:52.736Z,8.50
2022-11-01T06:32:43.638Z,8.50
2022-11-01T06:35:33.236Z,8.60
2022-11-01T06:38:22.685Z,8.60
2022-11-01T06:44:28.692Z,8.60
2022-11-01T06:51:20.756Z,8.70
2022-11-01T06:54:10.135Z,8.80
2022-11-01T07:01:10.734Z,9.00
2022-11-01T07:04:00.524Z,9.10
2022-11-01T07:06:51.675Z,9.10
2022-11-01T07:22:27.017Z,9.10
2022-11-01T07:25:16.570Z,9.20
2022-11-01T07:35:24.215Z,9.30
2022-11-01T07:38:16.259Z,9.40
2022-11-01T07:41:06.535Z,9.50
2022-11-01T07:48:03.095Z,9.60
2022-11-01T07:50:52.776Z,9.70
2022-11-01T07:53:44.137Z,9.80
2022-11-01T07:56:33.457Z,9.80
2022-11-01T08:02:39.926Z,10.10
2022-11-01T08:05:29.304Z,10.00
2022-11-01T08:08:19.163Z,10.10
2022-11-01T08:11:10.026Z,10.20
2022-11-01T08:14:02.920Z,10.20
2022-11-01T08:21:37.302Z,10.30
2022-11-01T08:24:26.721Z,10.40
2022-11-01T08:27:17.950Z,10.40
2022-11-01T08:30:08.393Z,10.50
2022-11-01T08:49:05.101Z,10.80
2022-11-01T09:04:01.107Z,10.80
2022-11-01T09:22:40.848Z,11.20
2022-11-01T09:46:01.456Z,11.30
2022-11-01T10:09:30.505Z,11.30
2022-11-01T10:43:57.898Z,13.10
2022-11-01T11:18:42.573Z,12.60
2022-11-01T11:26:05.531Z,12.50
2022-11-01T11:28:59.016Z,12.30
2022-11-01T11:36:00.448Z,12.20
2022-11-01T11:42:52.782Z,12.10
2022-11-01T11:49:45.548Z,12.20
2022-11-01T12:00:39.901Z,12.60
2022-11-01T12:03:29.939Z,12.80
2022-11-01T12:06:23.139Z,12.90
2022-11-01T12:17:28.490Z,13.10
2022-11-01T12:20:20.401Z,12.90
2022-11-01T12:27:50.880Z,12.80
2022-11-01T12:30:42.299Z,12.70
2022-11-01T12:33:36.203Z,12.80
2022-11-01T12:36:32.494Z,12.80
2022-11-01T12:43:30.348Z,12.70
2022-11-01T12:46:30.662Z,12.50
2022-11-01T12:49:31.584Z,12.60
2022-11-01T12:52:28.701Z,12.20
2022-11-01T12:59:26.262Z,12.10
2022-11-01T13:06:42.879Z,11.90
2022-11-01T13:13:41.402Z,12.00
2022-11-01T13:16:38.480Z,11.90
2022-11-01T13:19:34.284Z,12.00
2022-11-01T13:22:33.165Z,11.90
2022-11-01T13:29:37.070Z,12.00
2022-11-01T13:32:35.668Z,12.00
2022-11-01T13:35:46.831Z,12.00
2022-11-01T13:38:43.127Z,12.00
2022-11-01T13:50:38.850Z,11.90
2022-11-01T13:53:36.049Z,11.80
2022-11-01T14:04:59.459Z,11.50
2022-11-01T14:08:29.133Z,11.50
2022-11-01T14:15:27.360Z,11.50
2022-11-01T14:18:17.136Z,11.50
2022-11-01T14:21:29.141Z,11.50
2022-11-01T14:24:35.126Z,11.50
2022-11-01T14:35:35.895Z,11.40
2022-11-01T14:46:31.061Z,11.40
2022-11-01T14:49:33.954Z,11.40
2022-11-01T14:52:32.273Z,11.30
2022-11-01T14:59:24.680Z,11.30
2022-11-01T15:02:14.514Z,11.30
2022-11-01T15:05:04.386Z,11.30
2022-11-01T15:07:57.188Z,11.30
2022-11-01T15:18:53.261Z,11.10
2022-11-01T15:21:47.404Z,11.10
2022-11-01T15:24:39.257Z,11.00
2022-11-01T15:27:35.462Z,11.00
2022-11-01T15:30:27.842Z,11.10
2022-11-01T15:33:21.518Z,11.10
2022-11-01T15:36:23.609Z,11.10
2022-11-01T15:39:21.775Z,11.10
2022-11-01T15:42:23.984Z,11.00
2022-11-01T15:45:28.508Z,11.10
2022-11-01T15:48:22.660Z,11.10
2022-11-01T15:51:23.401Z,11.10
2022-11-01T15:54:27.983Z,11.10
2022-11-01T15:57:29.821Z,11.10
2022-11-01T16:00:22.679Z,11.10
2022-11-01T16:03:18.508Z,11.10
2022-11-01T16:06:16.208Z,11.10
2022-11-01T16:09:09.628Z,11.10
2022-11-01T16:12:01.850Z,11.10
2022-11-01T16:14:59.260Z,11.20
2022-11-01T16:17:49.009Z,11.10
2022-11-01T16:20:42.648Z,11.10
2022-11-01T16:23:32.831Z,11.10
2022-11-01T16:26:22.603Z,11.10
2022-11-01T16:29:17.085Z,11.00
2022-11-01T16:32:10.492Z,11.00
2022-11-01T16:35:01.442Z,11.10
2022-11-01T16:37:51.151Z,11.10
2022-11-01T16:40:41.294Z,11.10
2022-11-01T16:43:33.918Z,11.20
2022-11-01T16:46:25.119Z,11.10
2022-11-01T16:49:22.484Z,11.10
2022-11-01T16:52:13.419Z,11.00
2022-11-01T16:55:04.015Z,11.00
2022-11-01T16:57:54.122Z,11.00
2022-11-01T17:00:45.235Z,11.10
2022-11-01T17:03:34.964Z,11.00
2022-11-01T17:06:27.178Z,11.00
2022-11-01T17:09:19.187Z,11.00
2022-11-01T17:12:09.364Z,11.00
2022-11-01T17:14:59.257Z,11.10
2022-11-01T17:17:51.580Z,11.10
2022-11-01T17:20:43.189Z,10.90
2022-11-01T17:23:36.029Z,10.90
2022-11-01T17:26:25.889Z,11.00
2022-11-01T17:29:16.172Z,11.00
2022-11-01T17:32:10.550Z,11.00
2022-11-01T17:35:00.219Z,11.00
2022-11-01T17:37:49.922Z,11.10
2022-11-01T17:40:42.242Z,11.10
2022-11-01T17:43:32.361Z,11.00
2022-11-01T17:46:27.909Z,11.00
2022-11-01T17:49:21.934Z,11.00
2022-11-01T17:52:12.508Z,11.00
2022-11-01T17:55:02.340Z,11.00
2022-11-01T17:57:54.084Z,11.00
2022-11-01T18:00:44.898Z,10.90
2022-11-01T18:03:34.581Z,10.90
2022-11-01T18:06:24.440Z,10.90
2022-11-01T18:09:23.270Z,10.90
2022-11-01T18:12:21.037Z,11.00
2022-11-01T18:15:19.942Z,11.00
2022-11-01T18:18:26.868Z,10.90
2022-11-01T18:21:26.820Z,10.90
2022-11-01T18:24:22.593Z,10.90
2022-11-01T18:27:14.246Z,10.90
2022-11-01T18:30:13.408Z,10.90
2022-11-01T18:33:12.971Z,10.90
2022-11-01T18:36:10.800Z,10.90
2022-11-01T18:39:08.466Z,10.90
2022-11-01T18:41:58.471Z,10.90
2022-11-01T18:44:48.351Z,10.90
2022-11-01T18:47:44.400Z,10.90
2022-11-01T18:50:40.518Z,10.90
2022-11-01T18:53:34.581Z,10.70
2022-11-01T18:56:25.928Z,10.80
2022-11-01T18:59:18.978Z,10.80
2022-11-01T19:02:20.493Z,10.80
2022-11-01T19:05:19.497Z,10.80
2022-11-01T19:08:24.302Z,10.70
2022-11-01T19:11:15.316Z,10.80
2022-11-01T19:14:07.801Z,10.80
2022-11-01T19:17:02.183Z,10.80
2022-11-01T19:19:57.290Z,10.70
2022-11-01T19:22:50.040Z,10.80
2022-11-01T19:25:46.910Z,10.80
2022-11-01T19:28:42.788Z,10.90
2022-11-01T19:31:39.776Z,10.80
2022-11-01T19:34:31.820Z,10.90
2022-11-01T19:38:03.898Z,10.80
2022-11-01T19:40:56.462Z,10.80
2022-11-01T19:43:46.815Z,10.80
2022-11-01T19:46:37.605Z,10.80
2022-11-01T19:49:30.580Z,10.80
2022-11-01T19:52:28.146Z,10.80
2022-11-01T19:55:43.999Z,10.80
2022-11-01T19:58:50.183Z,10.80
2022-11-01T20:01:42.578Z,10.80
2022-11-01T20:04:33.062Z,10.90
2022-11-01T20:07:27.537Z,10.90
2022-11-01T20:10:18.144Z,10.80
2022-11-01T20:13:08.405Z,10.90
2022-11-01T20:16:00.318Z,10.80
2022-11-01T20:18:50.019Z,10.80
2022-11-01T20:21:40.059Z,10.80
2022-11-01T20:24:32.942Z,10.80
2022-11-01T20:27:23.265Z,10.90
2022-11-01T20:30:13.906Z,10.90
2022-11-01T20:33:07.043Z,10.80
2022-11-01T20:35:57.360Z,10.80
2022-11-01T20:38:47.419Z,10.90
2022-11-01T20:41:37.467Z,11.00
2022-11-01T20:44:27.616Z,10.90
2022-11-01T20:47:17.588Z,10.90
2022-11-01T20:50:10.447Z,10.90
2022-11-01T20:53:00.082Z,10.90
2022-11-01T20:55:49.889Z,10.90
2022-11-01T20:58:41.785Z,10.90
2022-11-01T21:01:31.646Z,10.90
2022-11-01T21:04:22.540Z,10.90
2022-11-01T21:07:15.507Z,11.00
2022-11-01T21:10:25.299Z,11.00
2022-11-01T21:13:26.461Z,10.90
2022-11-01T21:16:25.680Z,11.00
2022-11-01T21:19:22.060Z,11.00
2022-11-01T21:22:21.462Z,11.00
2022-11-01T21:25:28.925Z,11.00
2022-11-01T21:28:28.834Z,10.90
2022-11-01T21:31:28.073Z,11.00
2022-11-01T21:34:28.180Z,11.00
2022-11-01T21:37:23.501Z,10.90
2022-11-01T21:40:27.510Z,11.00
2022-11-01T21:43:31.160Z,11.00
2022-11-01T21:46:23.208Z,11.00
2022-11-01T21:49:26.232Z,11.00
2022-11-01T21:52:16.322Z,11.00
2022-11-01T21:55:08.159Z,11.00
2022-11-01T21:57:57.767Z,11.00
2022-11-01T22:00:47.511Z,11.00
2022-11-01T22:03:37.081Z,11.10
2022-11-01T22:06:26.949Z,11.10
2022-11-01T22:09:17.041Z,11.10
2022-11-01T22:12:09.120Z,11.10
2022-11-01T22:14:58.764Z,11.10
2022-11-01T22:17:48.377Z,11.00
2022-11-01T22:20:37.892Z,11.00
2022-11-01T22:23:27.768Z,11.00
2022-11-01T22:26:17.700Z,11.10
2022-11-01T22:29:08.770Z,11.10
2022-11-01T22:31:58.420Z,11.10
2022-11-01T22:34:47.921Z,11.10
2022-11-01T22:37:38.108Z,11.10
2022-11-01T22:40:27.998Z,11.00
2022-11-01T22:43:19.460Z,11.10
2022-11-01T22:46:22.347Z,11.20
2022-11-01T22:49:16.931Z,11.20
2022-11-01T22:52:16.388Z,11.20
2022-11-01T22:55:19.860Z,11.10
2022-11-01T22:58:32.640Z,11.20
2022-11-01T23:01:27.989Z,11.00
2022-11-01T23:04:24.028Z,11.00
2022-11-01T23:07:27.640Z,11.00
2022-11-01T23:10:31.496Z,11.00
2022-11-01T23:13:43.559Z,11.00
2022-11-01T23:16:41.279Z,11.00
2022-11-01T23:19:30.830Z,11.10
2022-11-01T23:22:23.482Z,11.10
2022-11-01T23:25:13.121Z,11.10
2022-11-01T23:28:02.621Z,11.20
2022-11-01T23:30:52.762Z,11.20
2022-11-01T23:33:45.839Z,11.20
2022-11-01T23:36:38.241Z,11.20
2022-11-01T23:39:37.600Z,11.10
2022-11-01T23:42:28.982Z,11.20
2022-11-01T23:45:29.687Z,11.20
2022-11-01T23:48:20.288Z,11.20
2022-11-01T23:51:16.048Z,11.30
2022-11-01T23:54:07.981Z,11.30
2022-11-01T23:56:57.940Z,11.30
2022-11-01T23:59:47.540Z,11.30
